sensor_id;sensor_type;location;lat;lon;timestamp;pressure;altitude;pressure_sealevel;temperature;humidity
19259;BME280;9763;48.780;9.212;2023-02-26T00:02:01;97911.78;;;6.06;72.32
19259;BME280;9763;48.780;9.212;2023-02-26T00:05:25;97911.97;;;6.03;72.54
19259;BME280;9763;48.780;9.212;2023-02-26T00:08:50;97879.06;;;5.89;72.40
19259;BME280;9763;48.780;9.212;2023-02-26T00:12:15;97911.22;;;6.01;72.11
19259;BME280;9763;48.780;9.212;2023-02-26T00:15:40;97907.28;;;5.94;71.97
19259;BME280;9763;48.780;9.212;2023-02-26T00:19:07;97894.88;;;5.83;71.76
19259;BME280;9763;48.780;9.212;2023-02-26T00:22:31;97916.16;;;5.90;71.75
19259;BME280;9763;48.780;9.212;2023-02-26T00:25:58;97905.22;;;5.83;71.54
19259;BME280;9763;48.780;9.212;2023-02-26T00:29:22;97920.19;;;5.78;71.25
19259;BME280;9763;48.780;9.212;2023-02-26T00:32:46;97911.06;;;5.71;71.44
19259;BME280;9763;48.780;9.212;2023-02-26T00:36:20;97916.66;;;5.63;71.10
19259;BME280;9763;48.780;9.212;2023-02-26T00:39:56;97915.84;;;5.63;71.20
19259;BME280;9763;48.780;9.212;2023-02-26T00:43:25;97903.13;;;5.42;71.05
19259;BME280;9763;48.780;9.212;2023-02-26T00:46:59;97919.16;;;5.49;71.07
19259;BME280;9763;48.780;9.212;2023-02-26T00:50:27;97916.97;;;5.41;70.64
19259;BME280;9763;48.780;9.212;2023-02-26T00:53:59;97931.59;;;5.42;71.17
19259;BME280;9763;48.780;9.212;2023-02-26T00:57:25;97925.66;;;5.40;70.92
19259;BME280;9763;48.780;9.212;2023-02-26T01:00:50;97919.84;;;5.35;71.12
19259;BME280;9763;48.780;9.212;2023-02-26T01:04:17;97926.56;;;5.39;70.68
19259;BME280;9763;48.780;9.212;2023-02-26T01:07:52;97919.03;;;5.35;70.44
19259;BME280;9763;48.780;9.212;2023-02-26T01:11:18;97911.34;;;5.33;70.89
19259;BME280;9763;48.780;9.212;2023-02-26T01:14:42;97928.31;;;5.39;70.11
19259;BME280;9763;48.780;9.212;2023-02-26T01:18:15;97925.03;;;5.35;70.39
19259;BME280;9763;48.780;9.212;2023-02-26T01:21:46;97927.03;;;5.30;69.98
19259;BME280;9763;48.780;9.212;2023-02-26T01:25:22;97922.94;;;5.26;70.30
19259;BME280;9763;48.780;9.212;2023-02-26T01:28:48;97896.34;;;5.07;70.25
19259;BME280;9763;48.780;9.212;2023-02-26T01:32:18;97925.16;;;5.17;70.27
19259;BME280;9763;48.780;9.212;2023-02-26T01:35:50;97926.22;;;5.13;69.84
19259;BME280;9763;48.780;9.212;2023-02-26T01:39:25;97926.75;;;5.02;69.84
19259;BME280;9763;48.780;9.212;2023-02-26T01:42:56;97928.22;;;4.90;69.78
19259;BME280;9763;48.780;9.212;2023-02-26T01:46:32;97931.41;;;4.78;69.89
19259;BME280;9763;48.780;9.212;2023-02-26T01:50:07;97931.03;;;4.68;69.62
19259;BME280;9763;48.780;9.212;2023-02-26T01:53:34;97936.50;;;4.62;69.89
19259;BME280;9763;48.780;9.212;2023-02-26T01:57:02;97934.34;;;4.53;69.92
19259;BME280;9763;48.780;9.212;2023-02-26T02:00:30;97943.16;;;4.49;69.82
19259;BME280;9763;48.780;9.212;2023-02-26T02:03:54;97944.31;;;4.44;69.56
19259;BME280;9763;48.780;9.212;2023-02-26T02:07:18;97913.56;;;4.20;70.02
19259;BME280;9763;48.780;9.212;2023-02-26T02:10:47;97933.72;;;4.31;69.50
19259;BME280;9763;48.780;9.212;2023-02-26T02:14:22;97929.00;;;4.22;69.70
19259;BME280;9763;48.780;9.212;2023-02-26T02:17:58;97940.00;;;4.25;69.56
19259;BME280;9763;48.780;9.212;2023-02-26T02:21:50;97942.03;;;4.19;69.36
19259;BME280;9763;48.780;9.212;2023-02-26T02:25:39;97943.94;;;4.15;69.83
19259;BME280;9763;48.780;9.212;2023-02-26T02:29:52;97949.38;;;4.09;69.59
19259;BME280;9763;48.780;9.212;2023-02-26T02:33:26;97952.19;;;4.05;69.76
19259;BME280;9763;48.780;9.212;2023-02-26T02:37:00;97944.94;;;3.94;70.12
19259;BME280;9763;48.780;9.212;2023-02-26T02:40:32;97958.53;;;3.97;69.78
19259;BME280;9763;48.780;9.212;2023-02-26T02:44:01;97955.31;;;3.92;69.27
19259;BME280;9763;48.780;9.212;2023-02-26T02:47:30;97961.44;;;3.90;69.50
19259;BME280;9763;48.780;9.212;2023-02-26T02:51:03;97965.94;;;3.86;69.56
19259;BME280;9763;48.780;9.212;2023-02-26T02:54:37;97967.88;;;3.81;69.62
19259;BME280;9763;48.780;9.212;2023-02-26T02:58:07;97968.22;;;3.74;69.58
19259;BME280;9763;48.780;9.212;2023-02-26T03:01:37;97975.31;;;3.69;69.43
19259;BME280;9763;48.780;9.212;2023-02-26T03:05:02;97979.78;;;3.65;69.81
19259;BME280;9763;48.780;9.212;2023-02-26T03:08:33;97979.09;;;3.61;69.45
19259;BME280;9763;48.780;9.212;2023-02-26T03:11:58;97971.59;;;3.55;69.53
19259;BME280;9763;48.780;9.212;2023-02-26T03:15:34;97979.34;;;3.55;69.76
19259;BME280;9763;48.780;9.212;2023-02-26T03:19:10;97984.56;;;3.54;69.96
19259;BME280;9763;48.780;9.212;2023-02-26T03:22:48;97990.63;;;3.53;69.86
19259;BME280;9763;48.780;9.212;2023-02-26T03:26:28;98004.44;;;3.52;69.76
19259;BME280;9763;48.780;9.212;2023-02-26T03:30:00;98000.13;;;3.52;69.61
19259;BME280;9763;48.780;9.212;2023-02-26T03:33:39;97987.03;;;3.57;70.11
19259;BME280;9763;48.780;9.212;2023-02-26T03:37:15;97998.34;;;3.73;69.86
19259;BME280;9763;48.780;9.212;2023-02-26T03:40:48;97986.41;;;3.71;69.41
19259;BME280;9763;48.780;9.212;2023-02-26T03:44:21;97951.63;;;3.40;69.34
19259;BME280;9763;48.780;9.212;2023-02-26T03:47:50;97999.78;;;3.60;69.73
19259;BME280;9763;48.780;9.212;2023-02-26T03:51:17;97999.44;;;3.49;69.22
19259;BME280;9763;48.780;9.212;2023-02-26T03:54:48;98007.22;;;3.47;69.67
19259;BME280;9763;48.780;9.212;2023-02-26T03:58:50;98009.44;;;3.36;69.34
19259;BME280;9763;48.780;9.212;2023-02-26T04:02:24;98015.50;;;3.35;69.55
19259;BME280;9763;48.780;9.212;2023-02-26T04:05:57;98013.09;;;3.31;69.58
19259;BME280;9763;48.780;9.212;2023-02-26T04:09:22;98016.56;;;3.30;69.81
19259;BME280;9763;48.780;9.212;2023-02-26T04:12:46;98026.03;;;3.29;69.95
19259;BME280;9763;48.780;9.212;2023-02-26T04:16:10;98037.25;;;3.28;69.85
19259;BME280;9763;48.780;9.212;2023-02-26T04:19:35;98031.31;;;3.26;69.61
19259;BME280;9763;48.780;9.212;2023-02-26T04:22:59;98027.09;;;3.25;69.16
19259;BME280;9763;48.780;9.212;2023-02-26T04:26:22;98029.81;;;3.22;69.21
19259;BME280;9763;48.780;9.212;2023-02-26T04:29:47;98031.66;;;3.18;69.24
19259;BME280;9763;48.780;9.212;2023-02-26T04:33:11;98031.03;;;3.13;69.29
19259;BME280;9763;48.780;9.212;2023-02-26T04:36:36;98037.13;;;3.11;69.26
19259;BME280;9763;48.780;9.212;2023-02-26T04:40:00;98038.94;;;3.09;69.73
19259;BME280;9763;48.780;9.212;2023-02-26T04:43:25;98034.81;;;3.05;69.25
19259;BME280;9763;48.780;9.212;2023-02-26T04:47:04;98046.72;;;3.07;69.74
19259;BME280;9763;48.780;9.212;2023-02-26T04:50:30;98046.78;;;3.06;69.63
19259;BME280;9763;48.780;9.212;2023-02-26T04:53:55;98031.88;;;2.92;69.38
19259;BME280;9763;48.780;9.212;2023-02-26T04:57:18;98051.09;;;3.05;69.48
19259;BME280;9763;48.780;9.212;2023-02-26T05:00:42;98054.34;;;3.10;69.78
19259;BME280;9763;48.780;9.212;2023-02-26T05:04:06;98048.28;;;3.11;69.28
19259;BME280;9763;48.780;9.212;2023-02-26T05:07:30;98039.00;;;3.07;69.33
19259;BME280;9763;48.780;9.212;2023-02-26T05:10:55;98051.00;;;3.08;69.34
19259;BME280;9763;48.780;9.212;2023-02-26T05:14:18;98066.50;;;3.07;69.25
19259;BME280;9763;48.780;9.212;2023-02-26T05:17:43;98053.75;;;3.04;69.33
19259;BME280;9763;48.780;9.212;2023-02-26T05:21:07;98072.69;;;3.03;69.15
19259;BME280;9763;48.780;9.212;2023-02-26T05:24:32;98076.25;;;3.00;69.06
19259;BME280;9763;48.780;9.212;2023-02-26T05:27:57;98079.78;;;2.98;69.34
19259;BME280;9763;48.780;9.212;2023-02-26T05:31:21;98073.94;;;2.93;69.06
19259;BME280;9763;48.780;9.212;2023-02-26T05:34:45;98078.41;;;2.89;69.06
19259;BME280;9763;48.780;9.212;2023-02-26T05:38:09;98092.13;;;2.89;69.25
19259;BME280;9763;48.780;9.212;2023-02-26T05:41:32;98093.09;;;2.87;69.16
19259;BME280;9763;48.780;9.212;2023-02-26T05:44:57;98093.31;;;2.81;69.26
19259;BME280;9763;48.780;9.212;2023-02-26T05:48:22;98100.19;;;2.80;69.04
19259;BME280;9763;48.780;9.212;2023-02-26T05:51:45;98102.00;;;2.78;68.96
19259;BME280;9763;48.780;9.212;2023-02-26T05:55:09;98104.78;;;2.74;68.92
19259;BME280;9763;48.780;9.212;2023-02-26T05:58:33;98114.22;;;2.73;69.06
19259;BME280;9763;48.780;9.212;2023-02-26T06:01:58;98126.28;;;2.73;68.90
19259;BME280;9763;48.780;9.212;2023-02-26T06:05:22;98124.59;;;2.72;69.14
19259;BME280;9763;48.780;9.212;2023-02-26T06:08:45;98125.59;;;2.68;69.02
19259;BME280;9763;48.780;9.212;2023-02-26T06:12:09;98124.75;;;2.67;68.92
19259;BME280;9763;48.780;9.212;2023-02-26T06:15:33;98133.31;;;2.68;68.88
19259;BME280;9763;48.780;9.212;2023-02-26T06:18:58;98131.78;;;2.64;68.85
19259;BME280;9763;48.780;9.212;2023-02-26T06:22:21;98138.84;;;2.59;68.98
19259;BME280;9763;48.780;9.212;2023-02-26T06:25:45;98149.13;;;2.59;68.63
19259;BME280;9763;48.780;9.212;2023-02-26T06:29:09;98156.97;;;2.56;69.43
19259;BME280;9763;48.780;9.212;2023-02-26T06:32:32;98163.00;;;2.54;69.38
19259;BME280;9763;48.780;9.212;2023-02-26T06:35:58;98171.31;;;2.63;69.67
19259;BME280;9763;48.780;9.212;2023-02-26T06:39:22;98171.69;;;2.75;68.89
19259;BME280;9763;48.780;9.212;2023-02-26T06:42:45;98183.94;;;2.92;69.39
19259;BME280;9763;48.780;9.212;2023-02-26T06:46:09;98184.09;;;3.11;69.08
19259;BME280;9763;48.780;9.212;2023-02-26T06:49:32;98193.97;;;3.21;69.43
19259;BME280;9763;48.780;9.212;2023-02-26T06:52:57;98194.50;;;3.30;69.22
19259;BME280;9763;48.780;9.212;2023-02-26T06:56:21;98193.72;;;3.28;69.05
19259;BME280;9763;48.780;9.212;2023-02-26T06:59:45;98214.66;;;3.42;69.35
19259;BME280;9763;48.780;9.212;2023-02-26T07:03:13;98213.31;;;3.53;69.21
19259;BME280;9763;48.780;9.212;2023-02-26T07:06:36;98214.34;;;3.71;69.44
19259;BME280;9763;48.780;9.212;2023-02-26T07:10:02;98214.41;;;3.90;69.17
19259;BME280;9763;48.780;9.212;2023-02-26T07:13:26;98223.16;;;4.08;69.58
19259;BME280;9763;48.780;9.212;2023-02-26T07:16:49;98218.03;;;4.26;69.21
19259;BME280;9763;48.780;9.212;2023-02-26T07:20:13;98227.53;;;4.46;69.35
19259;BME280;9763;48.780;9.212;2023-02-26T07:23:37;98223.47;;;4.59;68.96
19259;BME280;9763;48.780;9.212;2023-02-26T07:27:03;98232.31;;;4.74;68.90
19259;BME280;9763;48.780;9.212;2023-02-26T07:30:27;98234.16;;;4.91;69.15
19259;BME280;9763;48.780;9.212;2023-02-26T07:33:51;98233.09;;;5.14;69.44
19259;BME280;9763;48.780;9.212;2023-02-26T07:37:14;98236.66;;;5.30;69.27
19259;BME280;9763;48.780;9.212;2023-02-26T07:40:41;98205.88;;;5.24;69.45
19259;BME280;9763;48.780;9.212;2023-02-26T07:44:08;98239.28;;;5.47;69.22
19259;BME280;9763;48.780;9.212;2023-02-26T07:47:32;98247.34;;;5.41;69.20
19259;BME280;9763;48.780;9.212;2023-02-26T07:50:56;98244.31;;;5.31;69.20
19259;BME280;9763;48.780;9.212;2023-02-26T07:54:20;98249.50;;;5.31;69.32
19259;BME280;9763;48.780;9.212;2023-02-26T07:57:43;98251.19;;;5.32;68.91
19259;BME280;9763;48.780;9.212;2023-02-26T08:01:09;98256.16;;;5.37;68.76
19259;BME280;9763;48.780;9.212;2023-02-26T08:04:32;98251.75;;;5.39;69.36
19259;BME280;9763;48.780;9.212;2023-02-26T08:07:57;98248.19;;;5.41;69.81
19259;BME280;9763;48.780;9.212;2023-02-26T08:11:23;98247.44;;;5.57;70.31
19259;BME280;9763;48.780;9.212;2023-02-26T08:14:46;98264.84;;;5.72;70.53
19259;BME280;9763;48.780;9.212;2023-02-26T08:18:11;98257.47;;;6.00;70.35
19259;BME280;9763;48.780;9.212;2023-02-26T08:21:35;98243.50;;;6.37;70.47
19259;BME280;9763;48.780;9.212;2023-02-26T08:24:59;98208.84;;;6.56;69.91
19259;BME280;9763;48.780;9.212;2023-02-26T08:28:23;98238.66;;;6.97;69.17
19259;BME280;9763;48.780;9.212;2023-02-26T08:31:47;98253.81;;;7.20;68.91
19259;BME280;9763;48.780;9.212;2023-02-26T08:35:12;98229.28;;;7.10;68.95
19259;BME280;9763;48.780;9.212;2023-02-26T08:38:36;98263.47;;;7.34;68.70
19259;BME280;9763;48.780;9.212;2023-02-26T08:42:00;98257.75;;;7.28;68.21
19259;BME280;9763;48.780;9.212;2023-02-26T08:45:24;98272.56;;;7.10;68.75
19259;BME280;9763;48.780;9.212;2023-02-26T08:48:47;98270.00;;;6.93;69.07
19259;BME280;9763;48.780;9.212;2023-02-26T08:52:12;98279.03;;;6.85;68.93
19259;BME280;9763;48.780;9.212;2023-02-26T08:55:36;98276.47;;;6.68;68.28
19259;BME280;9763;48.780;9.212;2023-02-26T08:59:00;98282.28;;;6.56;68.68
19259;BME280;9763;48.780;9.212;2023-02-26T09:02:24;98282.00;;;6.45;68.98
19259;BME280;9763;48.780;9.212;2023-02-26T09:05:49;98295.50;;;6.34;68.62
19259;BME280;9763;48.780;9.212;2023-02-26T09:09:14;98288.09;;;6.27;68.66
19259;BME280;9763;48.780;9.212;2023-02-26T09:12:38;98268.41;;;6.05;68.73
19259;BME280;9763;48.780;9.212;2023-02-26T09:16:02;98292.59;;;6.23;68.99
19259;BME280;9763;48.780;9.212;2023-02-26T09:19:26;98298.69;;;6.39;68.99
19259;BME280;9763;48.780;9.212;2023-02-26T09:22:49;98297.31;;;6.49;68.64
19259;BME280;9763;48.780;9.212;2023-02-26T09:26:15;98300.56;;;6.53;68.66
19259;BME280;9763;48.780;9.212;2023-02-26T09:29:38;98298.91;;;6.52;68.87
19259;BME280;9763;48.780;9.212;2023-02-26T09:33:02;98307.50;;;6.53;69.16
19259;BME280;9763;48.780;9.212;2023-02-26T09:36:26;98315.41;;;6.51;69.05
19259;BME280;9763;48.780;9.212;2023-02-26T09:39:49;98304.09;;;6.35;69.22
19259;BME280;9763;48.780;9.212;2023-02-26T09:43:51;98328.56;;;6.29;68.97
19259;BME280;9763;48.780;9.212;2023-02-26T09:47:24;98329.84;;;6.21;69.37
19259;BME280;9763;48.780;9.212;2023-02-26T09:50:52;98329.53;;;6.09;69.02
19259;BME280;9763;48.780;9.212;2023-02-26T09:54:22;98331.94;;;5.95;69.17
19259;BME280;9763;48.780;9.212;2023-02-26T09:57:49;98342.50;;;6.09;69.36
19259;BME280;9763;48.780;9.212;2023-02-26T10:01:25;98347.75;;;6.08;69.53
19259;BME280;9763;48.780;9.212;2023-02-26T10:05:02;98355.59;;;6.06;69.41
19259;BME280;9763;48.780;9.212;2023-02-26T10:08:38;98359.31;;;6.01;69.05
19259;BME280;9763;48.780;9.212;2023-02-26T10:12:11;98341.53;;;5.93;69.57
19259;BME280;9763;48.780;9.212;2023-02-26T10:15:39;98365.53;;;5.97;69.38
19259;BME280;9763;48.780;9.212;2023-02-26T10:19:11;98336.34;;;5.93;68.82
19259;BME280;9763;48.780;9.212;2023-02-26T10:22:44;98359.78;;;6.09;69.32
19259;BME280;9763;48.780;9.212;2023-02-26T10:26:15;98347.97;;;6.03;68.71
19259;BME280;9763;48.780;9.212;2023-02-26T10:29:49;98368.59;;;6.05;69.05
19259;BME280;9763;48.780;9.212;2023-02-26T10:33:27;98364.25;;;6.05;69.43
19259;BME280;9763;48.780;9.212;2023-02-26T10:37:03;98361.59;;;6.07;68.98
19259;BME280;9763;48.780;9.212;2023-02-26T10:40:38;98360.47;;;6.12;68.97
19259;BME280;9763;48.780;9.212;2023-02-26T10:44:15;98368.94;;;6.16;69.02
19259;BME280;9763;48.780;9.212;2023-02-26T10:47:51;98370.00;;;6.12;68.62
19259;BME280;9763;48.780;9.212;2023-02-26T10:51:22;98367.88;;;6.03;69.12
19259;BME280;9763;48.780;9.212;2023-02-26T10:55:06;98372.88;;;6.06;68.80
19259;BME280;9763;48.780;9.212;2023-02-26T10:58:35;98377.91;;;6.09;69.30
19259;BME280;9763;48.780;9.212;2023-02-26T11:01:59;98374.28;;;6.13;68.99
19259;BME280;9763;48.780;9.212;2023-02-26T11:05:27;98368.59;;;6.24;69.54
19259;BME280;9763;48.780;9.212;2023-02-26T11:08:55;98365.53;;;6.33;69.60
19259;BME280;9763;48.780;9.212;2023-02-26T11:12:20;98364.03;;;6.46;69.02
19259;BME280;9763;48.780;9.212;2023-02-26T11:15:49;98351.75;;;6.67;69.56
19259;BME280;9763;48.780;9.212;2023-02-26T11:19:15;98355.25;;;7.16;69.29
19259;BME280;9763;48.780;9.212;2023-02-26T11:22:45;98360.69;;;7.44;69.21
19259;BME280;9763;48.780;9.212;2023-02-26T11:26:17;98348.56;;;7.45;68.40
19259;BME280;9763;48.780;9.212;2023-02-26T11:29:47;98358.47;;;7.37;68.62
19259;BME280;9763;48.780;9.212;2023-02-26T11:33:21;98370.84;;;7.16;68.04
19259;BME280;9763;48.780;9.212;2023-02-26T11:36:45;98360.66;;;6.96;68.38
19259;BME280;9763;48.780;9.212;2023-02-26T11:40:16;98360.28;;;6.86;68.54
19259;BME280;9763;48.780;9.212;2023-02-26T11:43:45;98352.72;;;6.81;69.14
19259;BME280;9763;48.780;9.212;2023-02-26T11:47:16;98346.13;;;6.76;68.44
19259;BME280;9763;48.780;9.212;2023-02-26T11:50:46;98348.78;;;6.74;69.07
19259;BME280;9763;48.780;9.212;2023-02-26T11:54:22;98361.69;;;6.76;68.46
19259;BME280;9763;48.780;9.212;2023-02-26T11:57:50;98328.03;;;6.57;68.55
19259;BME280;9763;48.780;9.212;2023-02-26T12:01:16;98363.88;;;6.66;68.92
19259;BME280;9763;48.780;9.212;2023-02-26T12:04:45;98347.63;;;6.45;68.82
19259;BME280;9763;48.780;9.212;2023-02-26T12:08:19;98372.31;;;6.53;69.28
19259;BME280;9763;48.780;9.212;2023-02-26T12:12:10;98368.59;;;6.58;69.20
19259;BME280;9763;48.780;9.212;2023-02-26T12:15:49;98369.59;;;6.73;69.19
19259;BME280;9763;48.780;9.212;2023-02-26T12:19:31;98367.06;;;6.88;68.33
19259;BME280;9763;48.780;9.212;2023-02-26T12:23:33;98374.47;;;6.96;68.36
19259;BME280;9763;48.780;9.212;2023-02-26T12:27:15;98379.88;;;6.92;68.00
19259;BME280;9763;48.780;9.212;2023-02-26T12:31:04;98380.56;;;6.78;68.28
19259;BME280;9763;48.780;9.212;2023-02-26T12:35:04;98382.19;;;6.63;68.13
19259;BME280;9763;48.780;9.212;2023-02-26T12:38:45;98380.03;;;6.54;68.45
19259;BME280;9763;48.780;9.212;2023-02-26T12:42:29;98381.50;;;6.60;68.62
19259;BME280;9763;48.780;9.212;2023-02-26T12:46:09;98383.69;;;6.67;68.85
19259;BME280;9763;48.780;9.212;2023-02-26T12:49:53;98361.34;;;6.65;68.67
19259;BME280;9763;48.780;9.212;2023-02-26T12:54:28;98374.00;;;7.05;68.34
19259;BME280;9763;48.780;9.212;2023-02-26T12:58:45;98369.69;;;7.21;68.21
19259;BME280;9763;48.780;9.212;2023-02-26T13:07:04;98382.53;;;7.40;68.02
19259;BME280;9763;48.780;9.212;2023-02-26T13:10:51;98384.22;;;7.41;67.99
19259;BME280;9763;48.780;9.212;2023-02-26T13:14:33;98400.88;;;7.37;67.45
19259;BME280;9763;48.780;9.212;2023-02-26T13:18:08;98388.91;;;7.35;68.01
19259;BME280;9763;48.780;9.212;2023-02-26T13:21:41;98373.22;;;7.20;68.29
19259;BME280;9763;48.780;9.212;2023-02-26T13:25:26;98384.16;;;7.26;67.71
19259;BME280;9763;48.780;9.212;2023-02-26T13:28:57;98381.00;;;7.20;68.48
19259;BME280;9763;48.780;9.212;2023-02-26T13:32:26;98375.44;;;7.11;68.45
19259;BME280;9763;48.780;9.212;2023-02-26T13:35:53;98385.09;;;7.24;67.57
19259;BME280;9763;48.780;9.212;2023-02-26T13:39:35;98388.53;;;7.25;67.72
19259;BME280;9763;48.780;9.212;2023-02-26T13:43:14;98389.28;;;7.27;67.37
19259;BME280;9763;48.780;9.212;2023-02-26T13:47:11;98391.22;;;7.23;67.83
19259;BME280;9763;48.780;9.212;2023-02-26T13:50:51;98401.97;;;7.33;67.08
19259;BME280;9763;48.780;9.212;2023-02-26T13:54:43;98397.44;;;7.37;66.82
19259;BME280;9763;48.780;9.212;2023-02-26T13:58:28;98392.91;;;7.40;67.13
19259;BME280;9763;48.780;9.212;2023-02-26T14:01:57;98405.19;;;7.54;67.14
19259;BME280;9763;48.780;9.212;2023-02-26T14:05:54;98404.88;;;7.60;66.44
19259;BME280;9763;48.780;9.212;2023-02-26T14:09:46;98408.78;;;7.51;67.22
19259;BME280;9763;48.780;9.212;2023-02-26T14:13:22;98414.22;;;7.47;67.20
19259;BME280;9763;48.780;9.212;2023-02-26T14:16:53;98393.25;;;7.34;67.20
19259;BME280;9763;48.780;9.212;2023-02-26T14:20:23;98383.88;;;7.32;67.16
19259;BME280;9763;48.780;9.212;2023-02-26T14:23:49;98369.44;;;7.26;67.66
19259;BME280;9763;48.780;9.212;2023-02-26T14:27:33;98398.66;;;7.63;67.56
19259;BME280;9763;48.780;9.212;2023-02-26T14:31:12;98404.09;;;7.74;67.14
19259;BME280;9763;48.780;9.212;2023-02-26T14:34:48;98405.06;;;7.73;67.43
19259;BME280;9763;48.780;9.212;2023-02-26T14:38:20;98394.56;;;7.58;67.16
19259;BME280;9763;48.780;9.212;2023-02-26T14:41:46;98415.56;;;7.54;67.15
19259;BME280;9763;48.780;9.212;2023-02-26T14:45:26;98413.81;;;7.54;67.18
19259;BME280;9763;48.780;9.212;2023-02-26T14:48:52;98394.09;;;7.35;66.90
19259;BME280;9763;48.780;9.212;2023-02-26T14:52:35;98408.97;;;7.31;66.88
19259;BME280;9763;48.780;9.212;2023-02-26T14:56:10;98414.41;;;7.27;67.64
19259;BME280;9763;48.780;9.212;2023-02-26T15:00:05;98421.13;;;7.31;67.21
19259;BME280;9763;48.780;9.212;2023-02-26T15:03:55;98432.41;;;7.30;66.77
19259;BME280;9763;48.780;9.212;2023-02-26T15:07:42;98427.44;;;7.25;66.98
19259;BME280;9763;48.780;9.212;2023-02-26T15:11:39;98434.41;;;7.24;66.88
19259;BME280;9763;48.780;9.212;2023-02-26T15:15:36;98436.25;;;7.22;66.58
19259;BME280;9763;48.780;9.212;2023-02-26T15:19:23;98426.94;;;7.01;66.65
19259;BME280;9763;48.780;9.212;2023-02-26T15:23:16;98441.00;;;6.97;66.53
19259;BME280;9763;48.780;9.212;2023-02-26T15:26:48;98445.91;;;6.86;66.56
19259;BME280;9763;48.780;9.212;2023-02-26T15:30:14;98460.06;;;6.79;66.14
19259;BME280;9763;48.780;9.212;2023-02-26T15:33:38;98464.94;;;6.68;66.43
19259;BME280;9763;48.780;9.212;2023-02-26T15:37:02;98453.25;;;6.59;67.07
19259;BME280;9763;48.780;9.212;2023-02-26T15:40:31;98466.50;;;6.53;66.41
19259;BME280;9763;48.780;9.212;2023-02-26T15:44:00;98473.53;;;6.51;66.68
19259;BME280;9763;48.780;9.212;2023-02-26T15:47:27;98466.88;;;6.45;66.73
19259;BME280;9763;48.780;9.212;2023-02-26T15:50:55;98454.63;;;6.30;66.43
19259;BME280;9763;48.780;9.212;2023-02-26T15:54:32;98480.97;;;6.40;67.05
19259;BME280;9763;48.780;9.212;2023-02-26T15:57:58;98469.06;;;6.36;66.80
19259;BME280;9763;48.780;9.212;2023-02-26T16:01:27;98458.91;;;6.31;66.85
19259;BME280;9763;48.780;9.212;2023-02-26T16:04:51;98468.94;;;6.20;66.38
19259;BME280;9763;48.780;9.212;2023-02-26T16:08:15;98504.94;;;6.26;66.11
19259;BME280;9763;48.780;9.212;2023-02-26T16:11:42;98492.50;;;6.16;66.60
19259;BME280;9763;48.780;9.212;2023-02-26T16:15:15;98506.47;;;6.11;66.22
19259;BME280;9763;48.780;9.212;2023-02-26T16:18:40;98503.66;;;5.97;66.06
19259;BME280;9763;48.780;9.212;2023-02-26T16:22:13;98502.44;;;5.86;65.62
19259;BME280;9763;48.780;9.212;2023-02-26T16:25:47;98506.91;;;5.82;65.99
19259;BME280;9763;48.780;9.212;2023-02-26T16:29:16;98515.03;;;5.74;66.46
19259;BME280;9763;48.780;9.212;2023-02-26T16:32:43;98531.28;;;5.78;66.36
19259;BME280;9763;48.780;9.212;2023-02-26T16:36:14;98521.69;;;5.60;66.21
19259;BME280;9763;48.780;9.212;2023-02-26T16:39:44;98542.72;;;5.72;65.99
19259;BME280;9763;48.780;9.212;2023-02-26T16:43:35;98555.72;;;5.71;65.93
19259;BME280;9763;48.780;9.212;2023-02-26T16:47:04;98554.09;;;5.68;65.84
19259;BME280;9763;48.780;9.212;2023-02-26T16:50:34;98568.00;;;5.67;65.79
19259;BME280;9763;48.780;9.212;2023-02-26T16:54:01;98572.31;;;5.67;66.05
19259;BME280;9763;48.780;9.212;2023-02-26T16:57:35;98586.19;;;5.66;66.22
19259;BME280;9763;48.780;9.212;2023-02-26T17:01:07;98592.19;;;5.66;65.94
19259;BME280;9763;48.780;9.212;2023-02-26T17:04:36;98584.50;;;5.65;66.08
19259;BME280;9763;48.780;9.212;2023-02-26T17:08:08;98591.41;;;5.64;65.56
19259;BME280;9763;48.780;9.212;2023-02-26T17:11:39;98589.72;;;5.63;65.95
19259;BME280;9763;48.780;9.212;2023-02-26T17:15:17;98605.25;;;5.63;65.82
19259;BME280;9763;48.780;9.212;2023-02-26T17:18:42;98601.88;;;5.61;65.47
19259;BME280;9763;48.780;9.212;2023-02-26T17:22:14;98607.84;;;5.63;65.60
19259;BME280;9763;48.780;9.212;2023-02-26T17:25:42;98616.53;;;5.62;65.33
19259;BME280;9763;48.780;9.212;2023-02-26T17:29:06;98621.75;;;5.61;64.85
19259;BME280;9763;48.780;9.212;2023-02-26T17:32:31;98624.63;;;5.55;65.01
19259;BME280;9763;48.780;9.212;2023-02-26T17:35:58;98618.25;;;5.41;64.91
19259;BME280;9763;48.780;9.212;2023-02-26T17:39:22;98625.41;;;5.35;65.08
19259;BME280;9763;48.780;9.212;2023-02-26T17:42:49;98630.06;;;5.27;65.40
19259;BME280;9763;48.780;9.212;2023-02-26T17:46:13;98638.66;;;5.27;65.25
19259;BME280;9763;48.780;9.212;2023-02-26T17:49:37;98642.31;;;5.22;65.13
19259;BME280;9763;48.780;9.212;2023-02-26T17:53:01;98637.56;;;5.11;65.22
19259;BME280;9763;48.780;9.212;2023-02-26T17:56:28;98640.53;;;5.02;65.68
19259;BME280;9763;48.780;9.212;2023-02-26T17:59:56;98607.31;;;4.69;65.46
19259;BME280;9763;48.780;9.212;2023-02-26T18:03:21;98639.84;;;4.75;65.55
19259;BME280;9763;48.780;9.212;2023-02-26T18:06:45;98656.19;;;4.76;65.31
19259;BME280;9763;48.780;9.212;2023-02-26T18:10:16;98653.00;;;4.69;65.53
19259;BME280;9763;48.780;9.212;2023-02-26T18:13:41;98654.06;;;4.63;65.35
19259;BME280;9763;48.780;9.212;2023-02-26T18:17:07;98655.25;;;4.55;65.61
19259;BME280;9763;48.780;9.212;2023-02-26T18:20:33;98648.00;;;4.41;65.39
19259;BME280;9763;48.780;9.212;2023-02-26T18:23:59;98664.25;;;4.45;65.84
19259;BME280;9763;48.780;9.212;2023-02-26T18:27:25;98672.84;;;4.45;65.39
19259;BME280;9763;48.780;9.212;2023-02-26T18:30:51;98668.69;;;4.41;65.59
19259;BME280;9763;48.780;9.212;2023-02-26T18:34:16;98671.38;;;4.38;65.77
19259;BME280;9763;48.780;9.212;2023-02-26T18:37:39;98659.69;;;4.28;65.78
19259;BME280;9763;48.780;9.212;2023-02-26T18:41:03;98642.81;;;4.18;65.63
19259;BME280;9763;48.780;9.212;2023-02-26T18:44:27;98674.84;;;4.37;65.44
19259;BME280;9763;48.780;9.212;2023-02-26T18:47:51;98683.22;;;4.44;65.80
19259;BME280;9763;48.780;9.212;2023-02-26T18:51:16;98686.72;;;4.43;65.25
19259;BME280;9763;48.780;9.212;2023-02-26T18:54:41;98690.34;;;4.37;65.75
19259;BME280;9763;48.780;9.212;2023-02-26T18:58:04;98646.88;;;4.00;65.61
19259;BME280;9763;48.780;9.212;2023-02-26T19:01:28;98690.72;;;4.26;65.88
19259;BME280;9763;48.780;9.212;2023-02-26T19:04:53;98675.41;;;4.22;65.73
19259;BME280;9763;48.780;9.212;2023-02-26T19:08:18;98689.28;;;4.19;65.42
19259;BME280;9763;48.780;9.212;2023-02-26T19:11:43;98694.34;;;4.22;65.55